createdAt,value
2018-11-03T00:01:54.693Z,46.77
2018-11-03T00:04:23.420Z,43.20
2018-11-03T00:06:52.148Z,44.67
2018-11-03T00:09:20.811Z,41.90
2018-11-03T00:11:49.552Z,46.93
2018-11-03T00:14:18.218Z,42.77
2018-11-03T00:16:46.910Z,43.63
2018-11-03T00:19:15.647Z,52.07
2018-11-03T00:21:44.285Z,65.20
2018-11-03T00:24:12.956Z,71.73
2018-11-03T00:26:41.685Z,70.17
2018-11-03T00:29:10.783Z,53.90
2018-11-03T00:31:39.523Z,64.43
2018-11-03T00:34:08.237Z,51.20
2018-11-03T00:36:36.928Z,43.90
2018-11-03T00:39:08.641Z,45.77
2018-11-03T00:41:37.330Z,43.87
2018-11-03T00:44:06.689Z,44.17
2018-11-03T00:46:35.344Z,43.50
2018-11-03T00:49:04.078Z,41.73
2018-11-03T00:51:32.909Z,42.43
2018-11-03T00:54:01.687Z,43.13
2018-11-03T00:56:30.304Z,44.17
2018-11-03T00:58:59.069Z,47.73
2018-11-03T01:01:27.777Z,44.97
2018-11-03T01:03:56.426Z,40.83
2018-11-03T01:06:25.138Z,44.80
2018-11-03T01:08:53.783Z,43.60
2018-11-03T01:11:22.494Z,45.70
2018-11-03T01:13:51.141Z,41.63
2018-11-03T01:16:19.877Z,40.93
2018-11-03T01:18:48.513Z,43.60
2018-11-03T01:21:17.240Z,40.00
2018-11-03T01:23:45.955Z,41.30
2018-11-03T01:26:14.550Z,44.97
2018-11-03T01:28:43.226Z,44.23
2018-11-03T01:31:11.849Z,41.77
2018-11-03T01:33:40.482Z,43.77
2018-11-03T01:36:09.237Z,44.67
2018-11-03T01:38:38.001Z,45.13
2018-11-03T01:41:06.676Z,43.07
2018-11-03T01:43:35.305Z,41.60
2018-11-03T01:46:03.995Z,41.53
2018-11-03T01:48:32.730Z,43.10
2018-11-03T01:51:01.375Z,44.03
2018-11-03T01:53:30.019Z,44.73
2018-11-03T01:55:58.675Z,49.50
2018-11-03T01:58:27.345Z,47.37
2018-11-03T02:00:56.087Z,44.57
2018-11-03T02:03:24.760Z,45.47
2018-11-03T02:05:53.410Z,48.40
2018-11-03T02:08:22.070Z,46.27
2018-11-03T02:10:50.699Z,49.20
2018-11-03T02:13:19.355Z,43.30
2018-11-03T02:15:47.968Z,48.00
2018-11-03T02:18:16.618Z,45.50
2018-11-03T02:20:45.347Z,43.77
2018-11-03T02:23:14.069Z,49.40
2018-11-03T02:25:42.729Z,53.57
2018-11-03T02:28:11.441Z,53.63
2018-11-03T02:30:40.154Z,50.13
2018-11-03T02:33:08.771Z,49.43
2018-11-03T02:35:37.506Z,53.53
2018-11-03T02:38:06.210Z,52.77
2018-11-03T02:40:34.962Z,51.17
2018-11-03T02:43:03.589Z,53.87
2018-11-03T02:45:32.259Z,53.70
2018-11-03T02:48:00.958Z,51.00
2018-11-03T02:50:29.701Z,51.50
2018-11-03T02:52:58.382Z,50.30
2018-11-03T02:55:27.010Z,49.50
2018-11-03T02:57:55.678Z,52.03
2018-11-03T03:00:24.397Z,50.77
2018-11-03T03:02:53.057Z,52.30
2018-11-03T03:05:21.725Z,52.03
2018-11-03T03:07:50.401Z,52.83
2018-11-03T03:10:19.073Z,52.70
2018-11-03T03:12:47.746Z,53.10
2018-11-03T03:15:16.461Z,54.67
2018-11-03T03:17:45.192Z,52.73
2018-11-03T03:20:13.937Z,54.67
2018-11-03T03:22:42.866Z,51.73
2018-11-03T03:25:12.218Z,55.07
2018-11-03T03:27:40.958Z,53.07
2018-11-03T03:30:10.197Z,51.23
2018-11-03T03:32:38.910Z,50.43
2018-11-03T03:35:07.849Z,51.00
2018-11-03T03:37:36.501Z,48.90
2018-11-03T03:40:06.067Z,55.70
2018-11-03T03:42:35.057Z,62.13
2018-11-03T03:45:03.713Z,55.10
2018-11-03T03:47:32.388Z,57.10
2018-11-03T03:50:01.013Z,54.93
2018-11-03T03:52:29.685Z,58.70
2018-11-03T03:54:58.667Z,57.70
2018-11-03T03:57:27.302Z,51.60
2018-11-03T03:59:55.955Z,48.07
2018-11-03T04:02:24.585Z,47.13
2018-11-03T04:04:53.226Z,50.43
2018-11-03T04:07:22.031Z,52.90
2018-11-03T04:09:51.381Z,53.73
2018-11-03T04:12:20.165Z,52.97
2018-11-03T04:14:48.837Z,45.10
2018-11-03T04:17:17.513Z,50.13
2018-11-03T04:19:46.132Z,50.90
2018-11-03T04:22:14.786Z,50.10
2018-11-03T04:24:43.699Z,50.53
2018-11-03T04:27:12.968Z,54.07
2018-11-03T04:29:41.599Z,49.93
2018-11-03T04:32:10.287Z,47.97
2018-11-03T04:34:38.934Z,45.40
2018-11-03T04:37:07.633Z,47.60
2018-11-03T04:39:36.290Z,53.83
2018-11-03T04:42:05.138Z,52.37
2018-11-03T04:44:33.762Z,53.97
2018-11-03T04:47:02.449Z,54.03
2018-11-03T04:49:31.092Z,53.43
2018-11-03T04:51:59.770Z,46.80
2018-11-03T04:54:28.461Z,51.23
2018-11-03T04:56:57.096Z,50.00
2018-11-03T04:59:25.779Z,52.73
2018-11-03T05:01:54.434Z,52.87
2018-11-03T05:04:23.121Z,50.90
2018-11-03T05:06:51.794Z,50.67
2018-11-03T05:09:20.404Z,43.70
2018-11-03T05:11:49.096Z,50.17
2018-11-03T05:14:17.760Z,45.60
2018-11-03T05:16:46.497Z,45.23
2018-11-03T05:19:15.557Z,47.27
2018-11-03T05:21:44.269Z,47.53
2018-11-03T05:24:12.959Z,48.07
2018-11-03T05:26:41.595Z,47.93
2018-11-03T05:29:10.295Z,48.87
2018-11-03T05:31:39.080Z,46.83
2018-11-03T05:34:07.709Z,49.50
2018-11-03T05:36:36.345Z,46.17
2018-11-03T05:39:07.356Z,46.13
2018-11-03T05:41:36.047Z,47.57
2018-11-03T05:44:04.758Z,42.27
2018-11-03T05:46:33.594Z,47.43
2018-11-03T05:49:02.110Z,43.10
2018-11-03T05:51:30.768Z,49.70
2018-11-03T05:53:59.477Z,51.37
2018-11-03T05:56:28.114Z,54.77
2018-11-03T05:58:56.851Z,45.73
2018-11-03T06:01:25.518Z,42.77
2018-11-03T06:03:54.243Z,50.50
2018-11-03T06:06:22.911Z,44.63
2018-11-03T06:08:52.133Z,56.33
2018-11-03T06:11:20.657Z,45.63
2018-11-03T06:13:49.333Z,42.47
2018-11-03T06:16:18.050Z,37.87
2018-11-03T06:18:46.690Z,39.73
2018-11-03T06:21:15.351Z,46.30
2018-11-03T06:23:44.121Z,54.80
2018-11-03T06:26:12.712Z,48.07
2018-11-03T06:28:41.357Z,51.40
2018-11-03T06:31:09.997Z,47.07
2018-11-03T06:33:38.670Z,44.73
2018-11-03T06:36:07.394Z,42.13
2018-11-03T06:38:36.131Z,41.57
2018-11-03T06:41:05.304Z,42.13
2018-11-03T06:43:33.974Z,42.37
2018-11-03T06:46:02.809Z,44.37
2018-11-03T06:48:31.498Z,44.23
2018-11-03T06:51:00.210Z,44.93
2018-11-03T06:53:29.014Z,40.47
2018-11-03T06:56:04.296Z,48.33
2018-11-03T06:58:32.989Z,44.70
2018-11-03T07:01:01.659Z,40.10
2018-11-03T07:03:30.350Z,40.17
2018-11-03T07:05:58.950Z,46.23
2018-11-03T07:08:27.627Z,39.73
2018-11-03T07:10:56.297Z,42.13
2018-11-03T07:13:25.151Z,47.60
2018-11-03T07:15:53.682Z,41.30
2018-11-03T07:18:22.350Z,48.23
2018-11-03T07:20:51.084Z,41.77
2018-11-03T07:23:19.746Z,44.87
2018-11-03T07:25:48.361Z,49.87
2018-11-03T07:28:17.071Z,41.53
2018-11-03T07:30:45.726Z,35.10
2018-11-03T07:33:14.407Z,36.80
2018-11-03T07:35:43.076Z,34.60
2018-11-03T07:38:11.778Z,38.47
2018-11-03T07:40:40.519Z,36.03
2018-11-03T07:43:09.416Z,36.27
2018-11-03T07:45:38.115Z,34.87
2018-11-03T07:48:06.996Z,34.50
2018-11-03T07:50:35.558Z,37.57
2018-11-03T07:53:04.564Z,31.27
2018-11-03T07:55:33.312Z,31.83
2018-11-03T07:58:02.063Z,32.80
2018-11-03T08:00:30.863Z,40.00
2018-11-03T08:02:59.926Z,35.30
2018-11-03T08:05:29.353Z,35.67
2018-11-03T08:07:58.093Z,35.50
2018-11-03T08:10:26.837Z,31.23
2018-11-03T08:12:55.838Z,27.63
2018-11-03T08:15:24.906Z,28.40
2018-11-03T08:17:53.637Z,31.73
2018-11-03T08:20:22.341Z,31.93
2018-11-03T08:22:51.001Z,29.90
2018-11-03T08:25:19.732Z,31.33
2018-11-03T08:27:48.466Z,27.50
2018-11-03T08:30:17.260Z,30.33
2018-11-03T08:32:46.461Z,27.30
2018-11-03T08:35:15.182Z,33.20
2018-11-03T08:37:44.190Z,34.60
2018-11-03T08:40:13.378Z,28.40
2018-11-03T08:42:42.221Z,31.00
2018-11-03T08:45:11.749Z,27.67
2018-11-03T08:47:40.841Z,29.60
2018-11-03T08:50:10.926Z,27.43
2018-11-03T08:52:39.832Z,29.67
2018-11-03T08:55:09.590Z,30.20
2018-11-03T08:57:38.321Z,29.35
2018-11-03T09:00:11.133Z,30.48
2018-11-03T09:02:40.249Z,27.93
2018-11-03T09:05:09.715Z,28.20
2018-11-03T09:07:38.843Z,24.30
2018-11-03T09:10:09.473Z,24.80
2018-11-03T09:12:38.447Z,26.33
2018-11-03T09:15:09.171Z,27.17
2018-11-03T09:17:38.794Z,23.32
2018-11-03T09:20:08.665Z,22.93
2018-11-03T09:22:38.200Z,27.35
2018-11-03T09:25:08.598Z,27.25
2018-11-03T09:27:37.522Z,24.87
2018-11-03T09:30:12.197Z,27.90
2018-11-03T09:32:41.132Z,26.27
2018-11-03T09:35:11.336Z,24.95
2018-11-03T09:37:40.615Z,21.60
2018-11-03T09:40:13.809Z,21.95
2018-11-03T09:42:43.410Z,22.05
2018-11-03T09:45:12.760Z,21.50
2018-11-03T09:47:41.898Z,24.10
2018-11-03T09:50:12.270Z,21.10
2018-11-03T09:52:41.746Z,20.68
2018-11-03T09:55:13.111Z,20.05
2018-11-03T09:57:42.109Z,19.52
2018-11-03T10:00:13.485Z,20.90
2018-11-03T10:02:42.677Z,19.73
2018-11-03T10:05:12.706Z,23.77
2018-11-03T10:07:41.436Z,17.57
2018-11-03T10:10:13.380Z,17.37
2018-11-03T10:12:42.557Z,18.23
2018-11-03T10:15:12.488Z,18.75
2018-11-03T10:17:42.625Z,19.42
2018-11-03T10:20:11.380Z,18.42
2018-11-03T10:22:40.141Z,20.95
2018-11-03T10:25:12.905Z,18.00
2018-11-03T10:27:41.943Z,19.35
2018-11-03T10:30:11.766Z,16.85
2018-11-03T10:32:41.054Z,18.00
2018-11-03T10:35:10.972Z,15.98
2018-11-03T10:37:39.718Z,16.30
2018-11-03T10:40:10.697Z,14.47
2018-11-03T10:42:39.679Z,16.00
2018-11-03T10:45:10.445Z,17.27
2018-11-03T10:47:39.888Z,15.28
2018-11-03T10:50:11.416Z,16.30
2018-11-03T10:52:41.316Z,18.07
2018-11-03T10:55:11.945Z,16.62
2018-11-03T10:57:41.309Z,14.78
2018-11-03T11:00:15.658Z,16.15
2018-11-03T11:02:49.934Z,15.18
2018-11-03T11:05:23.891Z,15.28
2018-11-03T11:07:58.107Z,14.40
2018-11-03T11:10:32.298Z,13.20
2018-11-03T11:13:04.105Z,15.25
2018-11-03T11:15:32.845Z,15.18
2018-11-03T11:18:01.646Z,16.20
2018-11-03T11:20:30.494Z,16.67
2018-11-03T11:22:59.368Z,17.05
2018-11-03T11:25:28.344Z,13.05
2018-11-03T11:27:57.442Z,11.08
2018-11-03T11:30:30.350Z,11.88
2018-11-03T11:32:59.153Z,8.78
2018-11-03T11:35:27.983Z,8.10
2018-11-03T11:37:56.805Z,8.60
2018-11-03T11:40:25.655Z,12.78
2018-11-03T11:42:54.524Z,11.18
2018-11-03T11:45:23.247Z,9.75
2018-11-03T11:47:51.960Z,7.45
2018-11-03T11:50:21.642Z,7.17
2018-11-03T11:52:50.468Z,7.78
2018-11-03T11:55:19.269Z,9.78
2018-11-03T11:57:48.277Z,10.30
2018-11-03T12:00:16.983Z,7.17
2018-11-03T12:02:45.670Z,8.08
2018-11-03T12:05:14.638Z,7.58
2018-11-03T12:07:43.321Z,10.85
2018-11-03T12:10:12.047Z,8.25
2018-11-03T12:12:40.648Z,9.05
2018-11-03T12:15:10.373Z,6.45
2018-11-03T12:17:39.070Z,7.92
2018-11-03T12:20:08.123Z,6.33
2018-11-03T12:22:37.065Z,6.28
2018-11-03T12:25:06.521Z,6.35
2018-11-03T12:27:35.184Z,6.42
2018-11-03T12:30:07.927Z,6.12
2018-11-03T12:32:36.645Z,8.90
2018-11-03T12:35:05.652Z,8.70
2018-11-03T12:37:34.449Z,7.28
2018-11-03T12:40:03.120Z,7.83
2018-11-03T12:42:31.762Z,8.50
2018-11-03T12:45:00.458Z,7.67
2018-11-03T12:47:29.134Z,7.70
2018-11-03T12:50:00.779Z,11.63
2018-11-03T12:52:30.721Z,8.48
2018-11-03T12:54:59.749Z,6.73
2018-11-03T12:57:28.498Z,6.40
2018-11-03T12:59:57.152Z,7.03
2018-11-03T13:02:25.784Z,10.03
2018-11-03T13:04:54.465Z,9.53
2018-11-03T13:07:23.164Z,6.90
2018-11-03T13:09:52.059Z,9.63
2018-11-03T13:12:20.760Z,10.63
2018-11-03T13:14:49.379Z,8.97
2018-11-03T13:17:17.997Z,13.03
2018-11-03T13:19:46.811Z,7.93
2018-11-03T13:22:15.445Z,9.40
2018-11-03T13:24:44.120Z,10.57
2018-11-03T13:27:12.781Z,11.57
2018-11-03T13:29:41.449Z,11.77
2018-11-03T13:32:10.810Z,9.20
2018-11-03T13:34:39.465Z,6.20
2018-11-03T13:37:08.099Z,7.63
2018-11-03T13:39:36.813Z,12.70
2018-11-03T13:42:05.622Z,10.80
2018-11-03T13:44:34.224Z,11.43
2018-11-03T13:47:02.956Z,11.83
2018-11-03T13:49:31.686Z,11.43
2018-11-03T13:52:00.301Z,10.83
2018-11-03T13:54:29.237Z,10.67
2018-11-03T13:56:57.946Z,13.10
2018-11-03T13:59:26.608Z,10.13
2018-11-03T14:01:55.558Z,10.80
2018-11-03T14:04:24.239Z,11.03
2018-11-03T14:06:52.967Z,12.70
2018-11-03T14:09:21.601Z,12.60
2018-11-03T14:11:50.244Z,10.37
2018-11-03T14:14:18.860Z,13.20
2018-11-03T14:16:47.476Z,11.70
2018-11-03T14:19:16.186Z,12.43
2018-11-03T14:21:44.831Z,10.50
2018-11-03T14:24:13.577Z,10.63
2018-11-03T14:26:42.238Z,12.30
2018-11-03T14:29:10.993Z,13.63
2018-11-03T14:31:39.638Z,16.27
2018-11-03T14:34:09.513Z,12.13
2018-11-03T14:36:38.274Z,13.43
2018-11-03T14:39:08.576Z,15.10
2018-11-03T14:41:37.204Z,16.23
2018-11-03T14:44:06.954Z,20.17
2018-11-03T14:46:35.628Z,16.53
2018-11-03T14:49:04.266Z,15.20
2018-11-03T14:51:32.910Z,16.37
2018-11-03T14:54:01.568Z,17.13
2018-11-03T14:56:30.225Z,15.53
2018-11-03T14:58:58.975Z,17.80
2018-11-03T15:01:27.651Z,15.63
2018-11-03T15:03:56.301Z,18.17
2018-11-03T15:06:25.038Z,18.10
2018-11-03T15:08:53.706Z,18.33
2018-11-03T15:11:22.313Z,15.53
2018-11-03T15:13:51.087Z,17.70
2018-11-03T15:16:19.654Z,18.37
2018-11-03T15:18:48.353Z,18.03
2018-11-03T15:21:17.013Z,18.57
2018-11-03T15:23:45.691Z,19.23
2018-11-03T15:26:14.313Z,18.53
2018-11-03T15:28:42.933Z,19.17
2018-11-03T15:31:11.646Z,18.93
2018-11-03T15:33:40.321Z,19.23
2018-11-03T15:36:09.029Z,18.20
2018-11-03T15:38:37.728Z,19.47
2018-11-03T15:41:06.623Z,21.67
2018-11-03T15:43:35.261Z,18.67
2018-11-03T15:46:03.945Z,20.60
2018-11-03T15:48:32.545Z,21.13
2018-11-03T15:51:01.194Z,18.87
2018-11-03T15:53:29.855Z,26.17
2018-11-03T15:55:58.485Z,26.07
2018-11-03T15:58:27.148Z,24.17
2018-11-03T16:00:55.904Z,24.73
2018-11-03T16:03:24.530Z,25.13
2018-11-03T16:05:53.153Z,25.37
2018-11-03T16:08:21.793Z,26.93
2018-11-03T16:10:50.433Z,27.83
2018-11-03T16:13:19.153Z,26.00
2018-11-03T16:15:47.829Z,25.30
2018-11-03T16:18:16.482Z,25.27
2018-11-03T16:20:45.351Z,27.33
2018-11-03T16:23:13.977Z,25.07
2018-11-03T16:25:42.690Z,23.77
2018-11-03T16:28:11.396Z,23.30
2018-11-03T16:30:40.098Z,27.03
2018-11-03T16:33:08.747Z,26.30
2018-11-03T16:35:37.497Z,25.17
2018-11-03T16:38:06.144Z,25.27
2018-11-03T16:40:35.102Z,29.27
2018-11-03T16:43:03.745Z,27.03
2018-11-03T16:45:32.493Z,26.03
2018-11-03T16:48:01.109Z,28.63
2018-11-03T16:50:29.718Z,26.30
2018-11-03T16:52:58.365Z,27.07
2018-11-03T16:55:27.253Z,31.50
2018-11-03T16:57:55.872Z,29.10
2018-11-03T17:00:24.583Z,33.33
2018-11-03T17:02:53.220Z,34.20
2018-11-03T17:05:21.858Z,37.07
2018-11-03T17:07:50.482Z,36.77
2018-11-03T17:10:19.128Z,35.70
2018-11-03T17:12:48.301Z,39.23
2018-11-03T17:15:17.233Z,40.73
2018-11-03T17:17:45.882Z,40.93
2018-11-03T17:20:14.581Z,42.60
2018-11-03T17:22:43.371Z,49.33
2018-11-03T17:25:12.893Z,47.40
2018-11-03T17:27:41.653Z,49.70
2018-11-03T17:30:13.041Z,49.87
2018-11-03T17:32:41.774Z,47.87
2018-11-03T17:35:10.806Z,46.93
2018-11-03T17:37:39.467Z,45.10
2018-11-03T17:40:09.066Z,50.20
2018-11-03T17:42:37.777Z,46.57
2018-11-03T17:45:07.186Z,50.10
2018-11-03T17:47:35.984Z,53.23
2018-11-03T17:50:05.160Z,57.20
2018-11-03T17:52:33.868Z,59.23
2018-11-03T17:55:02.610Z,55.17
2018-11-03T17:57:31.651Z,54.47
2018-11-03T18:00:00.352Z,49.30
2018-11-03T18:02:29.045Z,52.23
2018-11-03T18:04:57.725Z,55.67
2018-11-03T18:07:26.413Z,52.80
2018-11-03T18:09:55.054Z,56.17
2018-11-03T18:12:24.614Z,57.77
2018-11-03T18:14:53.368Z,60.60
2018-11-03T18:17:22.553Z,62.80
2018-11-03T18:19:51.276Z,62.37
2018-11-03T18:22:34.613Z,64.83
2018-11-03T18:25:03.589Z,62.60
2018-11-03T18:27:32.230Z,57.67
2018-11-03T18:30:00.862Z,61.47
2018-11-03T18:32:29.634Z,58.47
2018-11-03T18:34:58.287Z,56.13
2018-11-03T18:37:27.010Z,59.50
2018-11-03T18:39:55.732Z,59.20
2018-11-03T18:42:24.479Z,48.07
2018-11-03T18:44:53.170Z,59.13
2018-11-03T18:47:22.036Z,60.10
2018-11-03T18:49:50.758Z,60.00
2018-11-03T18:52:19.872Z,59.53
2018-11-03T18:54:48.597Z,57.87
2018-11-03T18:57:17.298Z,60.40
2018-11-03T18:59:46.144Z,61.20
2018-11-03T19:02:14.994Z,59.50
2018-11-03T19:04:43.865Z,62.40
2018-11-03T19:07:12.541Z,60.40
2018-11-03T19:09:41.228Z,59.10
2018-11-03T19:12:09.867Z,58.10
2018-11-03T19:14:38.566Z,59.50
2018-11-03T19:17:07.360Z,62.03
2018-11-03T19:19:35.989Z,57.57
2018-11-03T19:22:04.801Z,69.03
2018-11-03T19:24:33.478Z,66.37
2018-11-03T19:27:02.214Z,67.40
2018-11-03T19:29:30.898Z,70.23
2018-11-03T19:31:59.677Z,63.77
2018-11-03T19:34:28.458Z,68.93
2018-11-03T19:36:57.199Z,64.60
2018-11-03T19:39:26.486Z,67.47
2018-11-03T19:41:55.148Z,67.10
2018-11-03T19:44:23.827Z,65.33
2018-11-03T19:46:52.577Z,63.43
2018-11-03T19:49:21.249Z,68.17
2018-11-03T19:51:50.115Z,61.47
2018-11-03T19:54:18.746Z,64.30
2018-11-03T19:56:47.382Z,60.20
2018-11-03T19:59:16.005Z,61.30
2018-11-03T20:01:44.691Z,65.63
2018-11-03T20:04:13.309Z,61.50
2018-11-03T20:06:41.909Z,58.83
2018-11-03T20:09:10.563Z,59.67
2018-11-03T20:11:39.236Z,59.80
2018-11-03T20:14:08.046Z,61.03
2018-11-03T20:16:36.689Z,58.23
2018-11-03T20:19:05.523Z,55.30
2018-11-03T20:21:34.189Z,63.17
2018-11-03T20:24:02.805Z,63.23
2018-11-03T20:26:31.561Z,58.43
2018-11-03T20:29:00.227Z,60.43
2018-11-03T20:31:29.133Z,60.03
2018-11-03T20:33:57.815Z,64.60
2018-11-03T20:36:26.466Z,68.23
2018-11-03T20:38:55.117Z,60.73
2018-11-03T20:41:23.746Z,61.93
2018-11-03T20:43:52.388Z,66.50
2018-11-03T20:46:21.041Z,62.70
2018-11-03T20:48:49.732Z,62.70
2018-11-03T20:51:18.384Z,64.87
2018-11-03T20:53:47.152Z,64.13
2018-11-03T20:56:15.800Z,61.97
2018-11-03T20:58:44.409Z,61.97
2018-11-03T21:01:13.033Z,63.23
2018-11-03T21:03:41.818Z,61.63
2018-11-03T21:06:10.498Z,58.40
2018-11-03T21:08:39.213Z,64.57
2018-11-03T21:11:07.947Z,63.67
2018-11-03T21:13:36.577Z,60.27
2018-11-03T21:16:05.333Z,61.47
2018-11-03T21:18:33.998Z,55.30
2018-11-03T21:21:02.697Z,63.13
2018-11-03T21:23:31.541Z,64.97
2018-11-03T21:26:00.033Z,62.90
2018-11-03T21:28:28.669Z,61.33
2018-11-03T21:30:57.393Z,61.63
2018-11-03T21:33:26.179Z,59.77
2018-11-03T21:35:54.733Z,61.30
2018-11-03T21:38:23.438Z,58.57
2018-11-03T21:40:52.120Z,62.30
2018-11-03T21:43:20.758Z,63.60
2018-11-03T21:45:49.448Z,58.73
2018-11-03T21:48:18.083Z,56.27
2018-11-03T21:50:46.732Z,60.90
2018-11-03T21:53:15.445Z,59.00
2018-11-03T21:55:44.183Z,67.13
2018-11-03T21:58:12.814Z,65.27
2018-11-03T22:00:41.520Z,61.93
2018-11-03T22:03:10.169Z,58.93
2018-11-03T22:05:38.810Z,61.33
2018-11-03T22:08:08.477Z,64.20
2018-11-03T22:10:37.140Z,60.27
2018-11-03T22:13:05.878Z,56.90
2018-11-03T22:15:34.578Z,69.50
2018-11-03T22:18:03.311Z,59.73
2018-11-03T22:20:31.990Z,60.33
2018-11-03T22:23:00.646Z,59.70
2018-11-03T22:25:29.410Z,56.43
2018-11-03T22:27:58.085Z,53.23
2018-11-03T22:30:26.725Z,60.63
2018-11-03T22:32:55.411Z,55.97
2018-11-03T22:35:24.040Z,55.20
2018-11-03T22:37:52.692Z,57.10
2018-11-03T22:40:21.342Z,55.13
2018-11-03T22:42:49.962Z,53.13
2018-11-03T22:45:18.598Z,48.83
2018-11-03T22:47:47.279Z,56.00
2018-11-03T22:50:15.896Z,51.83
2018-11-03T22:52:44.672Z,54.80
2018-11-03T22:55:13.434Z,45.67
2018-11-03T22:57:42.074Z,45.10
2018-11-03T23:00:13.317Z,42.30
2018-11-03T23:02:42.601Z,44.37
2018-11-03T23:05:12.377Z,43.23
2018-11-03T23:07:41.221Z,40.13
2018-11-03T23:10:10.062Z,41.40
2018-11-03T23:12:38.822Z,40.90
2018-11-03T23:15:08.396Z,40.83
2018-11-03T23:17:37.101Z,40.47
2018-11-03T23:20:08.187Z,41.33
2018-11-03T23:22:38.051Z,37.43
2018-11-03T23:25:07.300Z,38.93
2018-11-03T23:27:36.042Z,40.53
2018-11-03T23:30:10.188Z,40.23
2018-11-03T23:32:38.800Z,39.50
2018-11-03T23:35:08.806Z,40.73
2018-11-03T23:37:37.509Z,39.70
2018-11-03T23:40:07.183Z,39.73
2018-11-03T23:42:35.884Z,38.37
2018-11-03T23:45:05.090Z,40.30
2018-11-03T23:47:33.762Z,41.57
2018-11-03T23:50:02.501Z,42.97
2018-11-03T23:52:33.081Z,37.50
2018-11-03T23:55:02.721Z,43.20
2018-11-03T23:57:31.362Z,40.90
